createdAt,value
2017-05-05T00:00:34.193Z,42.67
2017-05-05T00:01:44.460Z,42.67
2017-05-05T00:02:54.418Z,42.65
2017-05-05T00:04:04.689Z,42.74
2017-05-05T00:05:14.649Z,42.74
2017-05-05T00:06:24.913Z,42.74
2017-05-05T00:07:34.547Z,42.84
2017-05-05T00:08:44.511Z,42.67
2017-05-05T00:09:54.776Z,42.55
2017-05-05T00:11:05.050Z,42.55
2017-05-05T00:12:15.006Z,42.46
2017-05-05T00:13:24.959Z,42.65
2017-05-05T00:14:35.250Z,42.46
2017-05-05T00:15:44.899Z,42.67
2017-05-05T00:16:55.163Z,42.74
2017-05-05T00:18:05.431Z,42.55
2017-05-05T00:19:14.757Z,42.55
2017-05-05T00:20:25.028Z,42.74
2017-05-05T00:21:34.666Z,42.74
2017-05-05T00:22:44.624Z,42.65
2017-05-05T00:23:54.887Z,42.74
2017-05-05T00:25:04.848Z,42.26
2017-05-05T00:26:14.798Z,42.36
2017-05-05T00:27:24.750Z,42.46
2017-05-05T00:28:34.705Z,42.65
2017-05-05T00:29:44.664Z,42.36
2017-05-05T00:30:54.941Z,42.55
2017-05-05T00:32:05.210Z,42.74
2017-05-05T00:33:14.852Z,42.46
2017-05-05T00:34:24.830Z,42.16
2017-05-05T00:35:35.101Z,42.65
2017-05-05T00:36:45.081Z,42.65
2017-05-05T00:37:55.347Z,42.65
2017-05-05T00:39:05.611Z,42.55
2017-05-05T00:40:15.884Z,42.26
2017-05-05T00:41:26.157Z,42.65
2017-05-05T00:42:36.117Z,42.55
2017-05-05T00:43:46.077Z,42.36
2017-05-05T00:44:56.350Z,42.74
2017-05-05T00:46:06.619Z,42.16
2017-05-05T00:47:16.262Z,42.74
2017-05-05T00:48:26.539Z,42.36
2017-05-05T00:49:36.808Z,42.74
2017-05-05T00:50:47.091Z,42.74
2017-05-05T00:51:57.359Z,42.46
2017-05-05T00:53:07.624Z,42.46
2017-05-05T00:54:17.581Z,42.46
2017-05-05T00:55:27.861Z,42.46
2017-05-05T00:56:37.815Z,42.46
2017-05-05T00:57:48.087Z,42.46
2017-05-05T00:58:58.358Z,42.36
2017-05-05T01:00:08.310Z,42.46
2017-05-05T01:01:18.579Z,42.55
2017-05-05T01:02:28.533Z,42.26
2017-05-05T01:03:38.800Z,42.36
2017-05-05T01:04:49.072Z,42.36
2017-05-05T01:05:59.345Z,42.46
2017-05-05T01:07:09.297Z,42.46
2017-05-05T01:08:19.567Z,42.36
2017-05-05T01:09:29.525Z,42.55
2017-05-05T01:10:39.477Z,42.46
2017-05-05T01:11:49.740Z,42.46
2017-05-05T01:13:00.006Z,42.26
2017-05-05T01:14:10.277Z,42.46
2017-05-05T01:15:20.239Z,42.36
2017-05-05T01:16:30.517Z,42.36
2017-05-05T01:17:40.786Z,42.36
2017-05-05T01:18:51.061Z,42.55
2017-05-05T01:20:01.017Z,42.36
2017-05-05T01:21:10.973Z,42.07
2017-05-05T01:22:20.925Z,42.07
2017-05-05T01:23:31.193Z,42.46
2017-05-05T01:24:41.476Z,42.26
2017-05-05T01:25:51.745Z,42.36
2017-05-05T01:27:02.014Z,42.36
2017-05-05T01:28:11.653Z,42.46
2017-05-05T01:29:21.315Z,42.55
2017-05-05T01:30:31.584Z,42.36
2017-05-05T01:31:41.539Z,42.26
2017-05-05T01:32:51.806Z,42.55
2017-05-05T01:34:02.088Z,42.65
2017-05-05T01:35:12.041Z,42.55
2017-05-05T01:36:21.992Z,42.65
2017-05-05T01:37:31.625Z,42.46
2017-05-05T01:38:41.931Z,42.36
2017-05-05T01:39:52.200Z,42.46
2017-05-05T01:41:02.157Z,42.26
2017-05-05T01:42:12.113Z,42.36
2017-05-05T01:43:22.067Z,42.36
2017-05-05T01:44:32.023Z,42.65
2017-05-05T01:45:41.971Z,42.16
2017-05-05T01:46:51.922Z,42.46
2017-05-05T01:48:02.186Z,42.46
2017-05-05T01:49:11.833Z,42.74
2017-05-05T01:50:21.788Z,42.65
2017-05-05T01:51:31.429Z,42.65
2017-05-05T01:52:41.069Z,42.36
2017-05-05T01:53:51.041Z,42.36
2017-05-05T01:55:01.314Z,42.07
2017-05-05T01:56:10.946Z,42.46
2017-05-05T01:57:20.901Z,42.16
2017-05-05T01:58:30.536Z,42.36
2017-05-05T01:59:40.175Z,42.16
2017-05-05T02:00:50.443Z,42.55
2017-05-05T02:02:00.396Z,42.26
2017-05-05T02:03:10.350Z,42.26
2017-05-05T02:04:19.989Z,42.46
2017-05-05T02:05:29.943Z,42.26
2017-05-05T02:06:39.903Z,42.36
2017-05-05T02:07:49.852Z,42.55
2017-05-05T02:08:59.819Z,42.46
2017-05-05T02:10:09.779Z,42.46
2017-05-05T02:11:19.730Z,42.55
2017-05-05T02:12:30.002Z,42.46
2017-05-05T02:13:39.957Z,42.46
2017-05-05T02:14:50.229Z,42.26
2017-05-05T02:16:00.498Z,42.46
2017-05-05T02:17:10.137Z,42.46
2017-05-05T02:18:20.089Z,42.36
2017-05-05T02:19:30.041Z,42.26
2017-05-05T02:20:39.678Z,42.26
2017-05-05T02:21:49.948Z,42.46
2017-05-05T02:23:00.214Z,42.46
2017-05-05T02:24:10.199Z,42.16
2017-05-05T02:25:19.843Z,42.26
2017-05-05T02:26:29.798Z,42.36
2017-05-05T02:27:40.081Z,42.46
2017-05-05T02:28:49.727Z,42.36
2017-05-05T02:30:00.017Z,42.36
2017-05-05T02:31:09.959Z,42.46
2017-05-05T02:32:19.899Z,42.55
2017-05-05T02:33:30.152Z,42.55
2017-05-05T02:34:40.401Z,42.74
2017-05-05T02:35:50.664Z,42.46
2017-05-05T02:37:00.608Z,42.36
2017-05-05T02:38:10.863Z,42.46
2017-05-05T02:39:20.491Z,42.07
2017-05-05T02:40:30.437Z,42.07
2017-05-05T02:41:40.066Z,42.09
2017-05-05T02:42:50.324Z,42.28
2017-05-05T02:44:00.268Z,42.26
2017-05-05T02:45:09.899Z,42.07
2017-05-05T02:46:20.151Z,42.09
2017-05-05T02:47:30.409Z,42.19
2017-05-05T02:48:40.353Z,42.28
2017-05-05T02:49:50.307Z,42.09
2017-05-05T02:51:00.266Z,42.16
2017-05-05T02:52:10.210Z,42.19
2017-05-05T02:53:20.479Z,41.88
2017-05-05T02:54:30.733Z,41.61
2017-05-05T02:55:40.364Z,41.99
2017-05-05T02:56:50.652Z,41.68
2017-05-05T02:58:00.280Z,41.88
2017-05-05T02:59:10.555Z,42.07
2017-05-05T03:00:20.814Z,41.97
2017-05-05T03:01:31.065Z,42.16
2017-05-05T03:02:40.693Z,42.16
2017-05-05T03:03:50.647Z,42.16
2017-05-05T03:05:00.922Z,42.07
2017-05-05T03:06:10.554Z,42.16
2017-05-05T03:07:20.491Z,42.16
2017-05-05T03:08:30.745Z,42.07
2017-05-05T03:09:41.032Z,42.07
2017-05-05T03:10:51.291Z,42.16
2017-05-05T03:12:01.542Z,42.16
2017-05-05T03:13:11.489Z,42.07
2017-05-05T03:14:21.436Z,41.78
2017-05-05T03:15:31.069Z,41.97
2017-05-05T03:16:41.337Z,41.3
2017-05-05T03:17:51.292Z,41.59
2017-05-05T03:19:01.571Z,41.3
2017-05-05T03:20:11.523Z,41.3
2017-05-05T03:21:21.474Z,41.88
2017-05-05T03:22:31.446Z,41.97
2017-05-05T03:23:41.403Z,41.78
2017-05-05T03:24:51.359Z,41.97
2017-05-05T03:26:00.999Z,41.78
2017-05-05T03:27:10.639Z,41.78
2017-05-05T03:28:20.283Z,41.78
2017-05-05T03:29:30.562Z,41.78
2017-05-05T03:30:40.829Z,41.49
2017-05-05T03:31:50.780Z,41.97
2017-05-05T03:33:01.056Z,41.59
2017-05-05T03:34:11.325Z,41.78
2017-05-05T03:35:21.284Z,41.59
2017-05-05T03:36:31.548Z,41.88
2017-05-05T03:37:41.503Z,41.88
2017-05-05T03:38:51.777Z,41.78
2017-05-05T03:40:01.752Z,41.68
2017-05-05T03:41:12.020Z,41.97
2017-05-05T03:42:22.285Z,41.68
2017-05-05T03:43:31.950Z,41.88
2017-05-05T03:44:41.905Z,41.88
2017-05-05T03:45:51.856Z,41.39
2017-05-05T03:47:01.810Z,41.68
2017-05-05T03:48:12.080Z,41.49
2017-05-05T03:49:21.719Z,41.68
2017-05-05T03:50:31.676Z,41.78
2017-05-05T03:51:41.957Z,41.49
2017-05-05T03:52:52.226Z,41.68
2017-05-05T03:54:02.500Z,41.88
2017-05-05T03:55:12.765Z,41.49
2017-05-05T03:56:22.718Z,41.68
2017-05-05T03:57:32.982Z,41.59
2017-05-05T03:58:43.250Z,41.78
2017-05-05T03:59:53.516Z,41.39
2017-05-05T04:01:03.503Z,41.59
2017-05-05T04:02:13.771Z,41.68
2017-05-05T04:03:23.725Z,41.59
2017-05-05T04:04:33.678Z,41.39
2017-05-05T04:05:43.944Z,41.49
2017-05-05T04:06:54.215Z,41.49
2017-05-05T04:08:04.168Z,41.59
2017-05-05T04:09:14.128Z,41.88
2017-05-05T04:10:24.395Z,41.68
2017-05-05T04:11:34.352Z,41.59
2017-05-05T04:12:44.621Z,41.68
2017-05-05T04:13:54.574Z,41.59
2017-05-05T04:15:04.851Z,41.49
2017-05-05T04:16:14.804Z,41.49
2017-05-05T04:17:24.439Z,41.49
2017-05-05T04:18:34.083Z,41.39
2017-05-05T04:19:44.357Z,41.59
2017-05-05T04:20:54.330Z,41.2
2017-05-05T04:22:04.600Z,41.59
2017-05-05T04:23:14.252Z,41.49
2017-05-05T04:24:24.210Z,41.59
2017-05-05T04:25:33.854Z,41.59
2017-05-05T04:26:44.119Z,41.3
2017-05-05T04:27:54.390Z,41.49
2017-05-05T04:29:04.343Z,41.49
2017-05-05T04:30:14.615Z,41.39
2017-05-05T04:31:24.880Z,41.39
2017-05-05T04:32:35.145Z,41.3
2017-05-05T04:33:45.098Z,41.2
2017-05-05T04:34:55.375Z,41.49
2017-05-05T04:36:05.645Z,41.2
2017-05-05T04:37:15.908Z,41.39
2017-05-05T04:38:26.174Z,41.11
2017-05-05T04:39:36.443Z,41.39
2017-05-05T04:40:46.711Z,41.39
2017-05-05T04:41:56.981Z,41.39
2017-05-05T04:43:06.628Z,41.2
2017-05-05T04:44:16.264Z,41.59
2017-05-05T04:45:26.537Z,41.39
2017-05-05T04:46:36.803Z,41.49
2017-05-05T04:47:46.753Z,41.49
2017-05-05T04:48:57.023Z,41.49
2017-05-05T04:50:06.681Z,41.3
2017-05-05T04:51:16.315Z,41.59
2017-05-05T04:52:26.269Z,41.49
2017-05-05T04:53:36.534Z,41.61
2017-05-05T04:54:46.816Z,41.41
2017-05-05T04:55:56.766Z,41.51
2017-05-05T04:57:07.034Z,41.49
2017-05-05T04:58:16.987Z,41.71
2017-05-05T04:59:27.257Z,41.61
2017-05-05T05:00:37.526Z,41.51
2017-05-05T05:01:47.165Z,41.71
2017-05-05T05:02:56.810Z,41.71
2017-05-05T05:04:06.770Z,41.51
2017-05-05T05:05:16.732Z,41.99
2017-05-05T05:06:26.685Z,41.71
2017-05-05T05:07:36.958Z,41.8
2017-05-05T05:08:47.232Z,41.51
2017-05-05T05:09:56.891Z,41.61
2017-05-05T05:11:07.159Z,41.89
2017-05-05T05:12:17.122Z,41.59
2017-05-05T05:13:26.762Z,41.68
2017-05-05T05:14:37.039Z,42.16
2017-05-05T05:15:47.368Z,42.16
2017-05-05T05:16:57.633Z,42.07
2017-05-05T05:18:07.901Z,41.99
2017-05-05T05:19:17.852Z,41.61
2017-05-05T05:20:28.123Z,41.51
2017-05-05T05:21:38.394Z,41.8
2017-05-05T05:22:48.354Z,41.8
2017-05-05T05:23:57.367Z,41.99
2017-05-05T05:25:07.322Z,41.99
2017-05-05T05:26:17.274Z,41.51
2017-05-05T05:27:27.540Z,41.8
2017-05-05T05:28:37.494Z,42.28
2017-05-05T05:29:47.766Z,42.26
2017-05-05T05:30:58.031Z,42.19
2017-05-05T05:32:08.301Z,42.09
2017-05-05T05:33:18.569Z,42.19
2017-05-05T05:34:28.543Z,42.09
2017-05-05T05:35:38.808Z,41.99
2017-05-05T05:36:49.076Z,42.19
2017-05-05T05:37:59.341Z,42.09
2017-05-05T05:39:09.604Z,41.89
2017-05-05T05:40:19.240Z,42.19
2017-05-05T05:41:29.227Z,42.19
2017-05-05T05:42:39.500Z,41.99
2017-05-05T05:43:49.807Z,41.8
2017-05-05T05:44:59.768Z,41.99
2017-05-05T05:46:10.035Z,42.09
2017-05-05T05:47:19.671Z,42.09
2017-05-05T05:48:29.627Z,42.28
2017-05-05T05:49:39.894Z,42.19
2017-05-05T05:50:50.160Z,42.19
2017-05-05T05:52:00.428Z,44.84
2017-05-05T05:53:10.383Z,47.53
2017-05-05T05:54:20.344Z,50.08
2017-05-05T05:55:30.615Z,51.4
2017-05-05T05:56:40.258Z,52.33
2017-05-05T05:57:50.740Z,52.97
2017-05-05T05:59:01.015Z,53.36
2017-05-05T06:00:11.282Z,53.16
2017-05-05T06:01:21.547Z,53.83
2017-05-05T06:02:31.505Z,53.93
2017-05-05T06:03:41.778Z,54.5
2017-05-05T06:04:52.057Z,54.6
2017-05-05T06:06:02.013Z,55.34
2017-05-05T06:07:11.650Z,54.38
2017-05-05T06:08:20.970Z,54.5
2017-05-05T06:09:31.247Z,54.19
2017-05-05T06:10:41.523Z,53.74
2017-05-05T06:11:51.785Z,53.16
2017-05-05T06:13:01.422Z,52.81
2017-05-05T06:14:11.697Z,51.95
2017-05-05T06:15:21.661Z,49.76
2017-05-05T06:16:31.613Z,47.77
2017-05-05T06:17:41.887Z,45.71
2017-05-05T06:18:51.839Z,45.15
2017-05-05T06:20:02.107Z,44.48
2017-05-05T06:21:12.371Z,44.12
2017-05-05T06:22:22.636Z,43.84
2017-05-05T06:23:32.907Z,43.26
2017-05-05T06:24:43.172Z,42.99
2017-05-05T06:25:53.127Z,42.89
2017-05-05T06:27:03.391Z,42.89
2017-05-05T06:28:13.032Z,42.6
2017-05-05T06:29:22.988Z,44.35
2017-05-05T06:30:32.314Z,43.59
2017-05-05T06:31:41.950Z,43.97
2017-05-05T06:32:52.239Z,44.07
2017-05-05T06:34:02.195Z,44.74
2017-05-05T06:35:12.465Z,44.17
2017-05-05T06:36:22.104Z,44.65
2017-05-05T06:37:31.755Z,44.07
2017-05-05T06:38:42.025Z,44.26
2017-05-05T06:39:51.662Z,43.88
2017-05-05T06:41:01.302Z,44.17
2017-05-05T06:42:11.568Z,43.88
2017-05-05T06:43:21.836Z,44.65
2017-05-05T06:44:32.110Z,44.09
2017-05-05T06:45:42.384Z,44.74
2017-05-05T06:46:52.334Z,44.45
2017-05-05T06:48:02.293Z,44.28
2017-05-05T06:49:11.935Z,44.48
2017-05-05T06:50:21.909Z,44.38
2017-05-05T06:51:32.170Z,44.38
2017-05-05T06:52:42.120Z,44.19
2017-05-05T06:53:52.403Z,44.19
2017-05-05T06:55:02.042Z,44.76
2017-05-05T06:56:12.308Z,44.67
2017-05-05T06:57:22.272Z,44.38
2017-05-05T06:58:32.539Z,43.99
2017-05-05T06:59:42.809Z,43.8
2017-05-05T07:00:52.451Z,44.09
2017-05-05T07:02:02.722Z,44.09
2017-05-05T07:03:12.357Z,43.99
2017-05-05T07:04:22.316Z,43.71
2017-05-05T07:05:32.609Z,44.09
2017-05-05T07:06:42.559Z,43.61
2017-05-05T07:07:52.513Z,43.9
2017-05-05T07:09:02.787Z,43.9
2017-05-05T07:10:12.423Z,44.09
2017-05-05T07:11:22.695Z,43.51
2017-05-05T07:12:32.962Z,44.38
2017-05-05T07:13:43.232Z,43.61
2017-05-05T07:14:53.498Z,43.71
2017-05-05T07:16:03.449Z,43.61
2017-05-05T07:17:12.784Z,43.8
2017-05-05T07:18:22.738Z,43.61
2017-05-05T07:19:32.375Z,43.8
2017-05-05T07:20:42.353Z,43.9
2017-05-05T07:21:51.993Z,43.8
2017-05-05T07:23:02.259Z,43.61
2017-05-05T07:24:12.527Z,43.8
2017-05-05T07:25:22.486Z,43.99
2017-05-05T07:26:32.762Z,43.9
2017-05-05T07:27:42.768Z,43.71
2017-05-05T07:28:52.410Z,43.8
2017-05-05T07:30:02.056Z,43.8
2017-05-05T07:31:11.379Z,43.71
2017-05-05T07:32:21.651Z,43.8
2017-05-05T07:33:31.289Z,43.51
2017-05-05T07:34:41.556Z,43.51
2017-05-05T07:35:51.830Z,43.61
2017-05-05T07:37:01.793Z,43.71
2017-05-05T07:38:12.067Z,43.9
2017-05-05T07:39:22.045Z,43.8
2017-05-05T07:40:32.006Z,43.41
2017-05-05T07:41:42.284Z,43.51
2017-05-05T07:42:52.239Z,43.32
2017-05-05T07:44:02.195Z,43.41
2017-05-05T07:45:11.860Z,43.41
2017-05-05T07:46:22.125Z,43.41
2017-05-05T07:47:32.081Z,43.61
2017-05-05T07:48:42.354Z,43.32
2017-05-05T07:49:52.644Z,43.54
2017-05-05T07:51:02.920Z,43.51
2017-05-05T07:52:12.874Z,43.63
2017-05-05T07:53:22.826Z,43.61
2017-05-05T07:54:32.783Z,43.44
2017-05-05T07:55:42.738Z,43.51
2017-05-05T07:56:52.700Z,43.41
2017-05-05T07:58:02.650Z,43.54
2017-05-05T07:59:12.601Z,43.61
2017-05-05T08:00:22.867Z,43.63
2017-05-05T08:01:32.815Z,43.32
2017-05-05T08:02:43.089Z,43.51
2017-05-05T08:03:53.358Z,43.41
2017-05-05T08:05:03.627Z,43.71
2017-05-05T08:06:13.576Z,43.54
2017-05-05T08:07:23.540Z,43.54
2017-05-05T08:08:33.814Z,43.44
2017-05-05T08:09:43.766Z,43.24
2017-05-05T08:10:54.034Z,43.51
2017-05-05T08:12:04.303Z,43.03
2017-05-05T08:13:14.260Z,43.13
2017-05-05T08:14:24.533Z,43.41
2017-05-05T08:15:34.172Z,43.24
2017-05-05T08:16:44.437Z,43.44
2017-05-05T08:17:54.391Z,43.34
2017-05-05T08:19:04.345Z,43.23
2017-05-05T08:20:14.611Z,43.34
2017-05-05T08:21:24.565Z,43.23
2017-05-05T08:22:34.516Z,43.24
2017-05-05T08:23:44.466Z,43.24
2017-05-05T08:24:54.736Z,43.15
2017-05-05T08:26:04.704Z,43.05
2017-05-05T08:27:14.655Z,43.05
2017-05-05T08:28:24.610Z,42.86
2017-05-05T08:29:34.880Z,43.15
2017-05-05T08:30:45.146Z,43.15
2017-05-05T08:31:54.784Z,43.15
2017-05-05T08:33:04.740Z,43.15
2017-05-05T08:34:14.933Z,43.24
2017-05-05T08:35:24.905Z,42.86
2017-05-05T08:36:34.859Z,43.15
2017-05-05T08:37:45.126Z,42.96
2017-05-05T08:38:55.398Z,42.86
2017-05-05T08:40:05.035Z,42.96
2017-05-05T08:41:14.379Z,42.96
2017-05-05T08:42:24.330Z,42.96
2017-05-05T08:43:33.657Z,43.24
2017-05-05T08:44:43.612Z,43.05
2017-05-05T08:45:53.273Z,43.05
2017-05-05T08:47:03.541Z,43.15
2017-05-05T08:48:13.176Z,43.05
2017-05-05T08:49:22.527Z,43.05
2017-05-05T08:50:32.801Z,43.15
2017-05-05T08:51:43.067Z,42.76
2017-05-05T08:52:53.337Z,42.76
2017-05-05T08:54:03.292Z,42.76
2017-05-05T08:55:13.569Z,42.76
2017-05-05T08:56:23.522Z,43.15
2017-05-05T08:57:33.481Z,43.05
2017-05-05T08:58:43.753Z,42.76
2017-05-05T08:59:54.024Z,42.67
2017-05-05T09:01:03.978Z,43.05
2017-05-05T09:02:14.245Z,43.15
2017-05-05T09:03:24.224Z,42.57
2017-05-05T09:04:34.491Z,42.76
2017-05-05T09:05:44.759Z,42.76
2017-05-05T09:06:55.028Z,42.57
2017-05-05T09:08:05.303Z,42.86
2017-05-05T09:09:15.254Z,42.86
2017-05-05T09:10:24.898Z,43.05
2017-05-05T09:11:35.160Z,42.86
2017-05-05T09:12:45.115Z,42.96
2017-05-05T09:13:54.768Z,42.86
2017-05-05T09:15:05.062Z,42.86
2017-05-05T09:16:15.023Z,42.86
2017-05-05T09:17:24.976Z,42.76
2017-05-05T09:18:34.927Z,42.67
2017-05-05T09:19:44.570Z,42.86
2017-05-05T09:20:54.526Z,43.05
2017-05-05T09:22:04.198Z,43.05
2017-05-05T09:23:14.153Z,42.57
2017-05-05T09:24:24.423Z,43.05
2017-05-05T09:25:34.688Z,43.05
2017-05-05T09:26:44.958Z,43.05
2017-05-05T09:27:55.231Z,42.96
2017-05-05T09:29:05.185Z,42.96
2017-05-05T09:30:15.134Z,42.67
2017-05-05T09:31:24.812Z,42.86
2017-05-05T09:32:34.764Z,42.57
2017-05-05T09:33:44.727Z,42.76
2017-05-05T09:34:54.680Z,42.96
2017-05-05T09:36:04.632Z,42.57
2017-05-05T09:37:14.278Z,43.05
2017-05-05T09:38:24.231Z,42.47
2017-05-05T09:39:33.878Z,42.86
2017-05-05T09:40:43.906Z,42.67
2017-05-05T09:41:53.546Z,42.57
2017-05-05T09:43:02.869Z,42.96
2017-05-05T09:44:13.136Z,42.86
2017-05-05T09:45:23.088Z,43.05
2017-05-05T09:46:33.040Z,42.67
2017-05-05T09:47:43.310Z,42.67
2017-05-05T09:48:53.581Z,42.67
2017-05-05T09:50:03.536Z,42.76
2017-05-05T09:51:13.171Z,42.67
2017-05-05T09:52:23.126Z,42.76
2017-05-05T09:53:32.765Z,42.57
2017-05-05T09:54:42.728Z,42.76
2017-05-05T09:55:52.685Z,42.67
2017-05-05T09:57:02.950Z,42.67
2017-05-05T09:58:12.903Z,42.67
2017-05-05T09:59:23.175Z,42.57
2017-05-05T10:00:33.441Z,42.67
2017-05-05T10:01:43.706Z,42.76
2017-05-05T10:02:53.978Z,42.86
2017-05-05T10:04:03.933Z,42.67
2017-05-05T10:05:13.887Z,42.67
2017-05-05T10:06:24.152Z,42.76
2017-05-05T10:07:34.105Z,42.57
2017-05-05T10:08:44.385Z,42.76
2017-05-05T10:09:54.694Z,42.57
2017-05-05T10:11:04.976Z,42.67
2017-05-05T10:12:14.929Z,42.47
2017-05-05T10:13:24.884Z,42.57
2017-05-05T10:14:34.526Z,42.67
2017-05-05T10:15:44.800Z,42.67
2017-05-05T10:16:54.443Z,42.86
2017-05-05T10:18:04.408Z,42.47
2017-05-05T10:19:14.366Z,42.76
2017-05-05T10:20:24.322Z,42.76
2017-05-05T10:21:34.274Z,42.28
2017-05-05T10:22:44.543Z,42.47
2017-05-05T10:23:54.499Z,42.86
2017-05-05T10:25:04.769Z,42.76
2017-05-05T10:26:15.042Z,42.76
2017-05-05T10:27:24.998Z,42.76
2017-05-05T10:28:34.981Z,42.86
2017-05-05T10:29:45.255Z,42.86
2017-05-05T10:30:55.522Z,42.86
2017-05-05T10:32:05.789Z,42.57
2017-05-05T10:33:16.057Z,42.86
2017-05-05T10:34:25.702Z,42.47
2017-05-05T10:35:35.378Z,42.38
2017-05-05T10:36:45.650Z,42.86
2017-05-05T10:37:55.604Z,42.47
2017-05-05T10:39:05.246Z,42.47
2017-05-05T10:40:15.200Z,42.57
2017-05-05T10:41:25.467Z,42.38
2017-05-05T10:42:35.417Z,42.47
2017-05-05T10:43:45.689Z,42.47
2017-05-05T10:44:55.016Z,42.19
2017-05-05T10:46:05.290Z,42.57
2017-05-05T10:47:15.563Z,42.38
2017-05-05T10:48:24.894Z,42.28
2017-05-05T10:49:34.846Z,42.28
2017-05-05T10:50:44.802Z,42.38
2017-05-05T10:51:55.072Z,42.19
2017-05-05T10:53:05.339Z,41.99
2017-05-05T10:54:15.292Z,42.3
2017-05-05T10:55:25.563Z,42.19
2017-05-05T10:56:35.206Z,42.47
2017-05-05T10:57:45.162Z,42.09
2017-05-05T10:58:55.119Z,42.09
2017-05-05T11:00:04.760Z,42.38
2017-05-05T11:01:14.721Z,42.47
2017-05-05T11:02:24.679Z,42.76
2017-05-05T11:03:34.320Z,42.76
2017-05-05T11:04:44.286Z,42.67
2017-05-05T11:05:53.930Z,42.76
2017-05-05T11:07:04.207Z,42.86
2017-05-05T11:08:14.163Z,42.86
2017-05-05T11:09:23.820Z,42.28
2017-05-05T11:10:34.088Z,42.96
2017-05-05T11:11:44.357Z,42.86
2017-05-05T11:12:54.622Z,42.86
2017-05-05T11:14:04.574Z,42.96
2017-05-05T11:15:14.541Z,42.96
2017-05-05T11:16:24.500Z,42.57
2017-05-05T11:17:34.771Z,42.28
2017-05-05T11:18:45.038Z,43.05
2017-05-05T11:19:55.305Z,42.47
2017-05-05T11:21:05.258Z,42.96
2017-05-05T11:22:14.897Z,43.05
2017-05-05T11:23:25.166Z,43.05
2017-05-05T11:24:35.434Z,42.67
2017-05-05T11:25:45.703Z,42.96
2017-05-05T11:26:55.341Z,42.67
2017-05-05T11:28:05.607Z,42.96
2017-05-05T11:29:15.879Z,43.05
2017-05-05T11:30:25.838Z,43.05
2017-05-05T11:31:35.476Z,42.76
2017-05-05T11:32:45.431Z,42.96
2017-05-05T11:33:55.707Z,42.76
2017-05-05T11:35:05.658Z,43.05
2017-05-05T11:36:15.609Z,42.67
2017-05-05T11:37:25.875Z,42.76
2017-05-05T11:38:35.518Z,43.05
2017-05-05T11:39:45.787Z,42.67
2017-05-05T11:40:56.061Z,43.05
2017-05-05T11:42:05.696Z,42.67
2017-05-05T11:43:15.654Z,42.96
2017-05-05T11:44:25.921Z,42.96
2017-05-05T11:45:36.194Z,42.38
2017-05-05T11:46:46.470Z,42.76
2017-05-05T11:47:56.427Z,42.67
2017-05-05T11:49:06.698Z,43.05
2017-05-05T11:50:16.039Z,42.96
2017-05-05T11:51:26.311Z,42.67
2017-05-05T11:52:36.606Z,42.96
2017-05-05T11:53:46.885Z,42.76
2017-05-05T11:54:57.160Z,42.76
2017-05-05T11:56:07.425Z,42.96
2017-05-05T11:57:17.376Z,42.76
2017-05-05T11:58:26.700Z,42.86
2017-05-05T11:59:36.974Z,42.67
2017-05-05T12:00:47.243Z,42.86
2017-05-05T12:01:57.204Z,42.96
2017-05-05T12:03:07.182Z,42.47
2017-05-05T12:04:17.453Z,43.05
2017-05-05T12:05:27.091Z,42.86
2017-05-05T12:06:36.729Z,42.57
2017-05-05T12:07:46.998Z,42.96
2017-05-05T12:08:56.953Z,42.76
2017-05-05T12:10:05.958Z,42.96
2017-05-05T12:11:15.913Z,42.76
2017-05-05T12:12:26.182Z,43.05
2017-05-05T12:13:36.138Z,42.67
2017-05-05T12:14:46.408Z,42.76
2017-05-05T12:15:56.042Z,43.05
2017-05-05T12:17:05.998Z,42.96
2017-05-05T12:18:15.967Z,42.76
2017-05-05T12:19:26.238Z,42.86
2017-05-05T12:20:36.502Z,42.38
2017-05-05T12:21:46.456Z,42.49
2017-05-05T12:22:56.725Z,42.49
2017-05-05T12:24:06.691Z,42.76
2017-05-05T12:25:16.640Z,42.76
2017-05-05T12:26:26.603Z,42.96
2017-05-05T12:27:35.930Z,42.96
2017-05-05T12:28:45.884Z,43.05
2017-05-05T12:29:56.152Z,42.57
2017-05-05T12:31:05.788Z,42.76
2017-05-05T12:32:16.058Z,42.57
2017-05-05T12:33:26.009Z,43.05
2017-05-05T12:34:35.672Z,42.96
2017-05-05T12:35:45.623Z,42.67
2017-05-05T12:36:55.577Z,42.67
2017-05-05T12:38:05.529Z,42.67
2017-05-05T12:39:15.487Z,42.67
2017-05-05T12:40:25.439Z,42.96
2017-05-05T12:41:35.392Z,42.76
2017-05-05T12:42:45.680Z,43.24
2017-05-05T12:43:55.634Z,42.86
2017-05-05T12:45:05.270Z,43.24
2017-05-05T12:46:14.596Z,42.67
2017-05-05T12:47:24.230Z,43.05
2017-05-05T12:48:33.550Z,43.05
2017-05-05T12:49:43.820Z,42.76
2017-05-05T12:50:54.088Z,42.76
2017-05-05T12:52:03.728Z,42.86
2017-05-05T12:53:13.047Z,42.96
2017-05-05T12:54:23.003Z,42.67
2017-05-05T12:55:32.956Z,42.86
2017-05-05T12:56:43.228Z,42.86
2017-05-05T12:57:53.499Z,43.05
2017-05-05T12:59:03.456Z,43.05
2017-05-05T13:00:13.409Z,42.76
2017-05-05T13:01:23.679Z,43.24
2017-05-05T13:02:33.317Z,42.96
2017-05-05T13:03:43.583Z,42.86
2017-05-05T13:04:53.537Z,42.76
2017-05-05T13:06:03.177Z,42.38
2017-05-05T13:07:13.130Z,42.67
2017-05-05T13:08:23.091Z,43.05
2017-05-05T13:09:33.053Z,42.67
2017-05-05T13:10:43.003Z,42.86
2017-05-05T13:11:52.957Z,42.76
2017-05-05T13:13:02.601Z,42.67
2017-05-05T13:14:12.871Z,42.67
2017-05-05T13:15:23.160Z,42.96
2017-05-05T13:16:33.430Z,43.15
2017-05-05T13:17:43.386Z,42.76
2017-05-05T13:18:53.654Z,42.86
2017-05-05T13:20:03.922Z,43.24
2017-05-05T13:21:13.872Z,43.24
2017-05-05T13:22:24.142Z,43.15
2017-05-05T13:23:33.782Z,42.67
2017-05-05T13:24:44.071Z,43.24
2017-05-05T13:25:54.023Z,42.86
2017-05-05T13:27:04.291Z,43.05
2017-05-05T13:28:13.612Z,42.86
2017-05-05T13:29:23.562Z,43.15
2017-05-05T13:30:33.829Z,43.05
2017-05-05T13:31:43.788Z,43.05
2017-05-05T13:32:53.741Z,42.96
2017-05-05T13:34:04.008Z,42.67
2017-05-05T13:35:14.285Z,42.96
2017-05-05T13:36:24.241Z,42.57
2017-05-05T13:37:33.882Z,42.86
2017-05-05T13:38:44.149Z,42.69
2017-05-05T13:39:54.423Z,42.69
2017-05-05T13:41:04.379Z,42.76
2017-05-05T13:42:14.334Z,42.69
2017-05-05T13:43:24.623Z,43.05
2017-05-05T13:44:34.257Z,42.79
2017-05-05T13:45:44.217Z,42.67
2017-05-05T13:46:54.521Z,43.24
2017-05-05T13:48:04.538Z,43.05
2017-05-05T13:49:14.495Z,43.05
2017-05-05T13:50:24.764Z,42.67
2017-05-05T13:51:35.034Z,42.57
2017-05-05T13:52:45.305Z,43.05
2017-05-05T13:53:54.988Z,42.67
2017-05-05T13:55:05.258Z,43.24
2017-05-05T13:56:14.894Z,43.24
2017-05-05T13:57:24.843Z,42.76
2017-05-05T13:58:35.223Z,43.15
2017-05-05T13:59:45.570Z,43.15
2017-05-05T14:00:55.523Z,42.69
2017-05-05T14:02:05.819Z,43.07
2017-05-05T14:03:16.086Z,43.07
2017-05-05T14:04:26.361Z,43.07
2017-05-05T14:05:36.628Z,43.05
2017-05-05T14:06:46.581Z,42.67
2017-05-05T14:07:56.540Z,43.24
2017-05-05T14:09:06.808Z,42.86
2017-05-05T14:10:16.771Z,43.15
2017-05-05T14:11:27.050Z,42.67
2017-05-05T14:12:37.006Z,43.15
2017-05-05T14:13:47.325Z,43.15
2017-05-05T14:14:57.317Z,43.05
2017-05-05T14:16:06.974Z,42.67
2017-05-05T14:17:16.986Z,43.24
2017-05-05T14:18:27.258Z,42.86
2017-05-05T14:19:37.531Z,42.67
2017-05-05T14:20:47.799Z,43.05
2017-05-05T14:21:57.755Z,43.15
2017-05-05T14:23:07.707Z,42.96
2017-05-05T14:24:17.658Z,42.76
2017-05-05T14:25:27.621Z,43.15
2017-05-05T14:26:37.902Z,42.76
2017-05-05T14:27:48.170Z,43.15
2017-05-05T14:28:58.441Z,42.76
2017-05-05T14:30:08.079Z,42.76
2017-05-05T14:31:17.715Z,43.24
2017-05-05T14:32:27.683Z,42.76
2017-05-05T14:33:37.956Z,43.05
2017-05-05T14:34:47.600Z,42.76
2017-05-05T14:35:57.242Z,42.67
2017-05-05T14:37:06.882Z,42.96
2017-05-05T14:38:16.859Z,42.76
2017-05-05T14:39:26.556Z,42.86
2017-05-05T14:40:36.835Z,42.96
2017-05-05T14:41:47.105Z,42.59
2017-05-05T14:42:57.071Z,43.05
2017-05-05T14:44:07.338Z,43.07
2017-05-05T14:45:17.295Z,42.96
2017-05-05T14:46:27.260Z,43.05
2017-05-05T14:47:37.527Z,42.67
2017-05-05T14:48:47.486Z,42.76
2017-05-05T14:49:57.477Z,42.86
2017-05-05T14:51:07.439Z,42.76
2017-05-05T14:52:16.801Z,42.86
2017-05-05T14:53:27.114Z,42.86
2017-05-05T14:54:36.438Z,42.76
2017-05-05T14:55:45.448Z,42.57
2017-05-05T14:56:55.737Z,42.57
2017-05-05T14:58:05.691Z,42.86
2017-05-05T14:59:15.327Z,42.76
2017-05-05T15:00:24.964Z,42.86
2017-05-05T15:01:35.233Z,42.67
2017-05-05T15:02:45.503Z,42.86